createdAt,value
2022-09-21T00:01:46.562Z,52.15
2022-09-21T00:04:15.317Z,52.74
2022-09-21T00:06:43.812Z,52.19
2022-09-21T00:09:12.425Z,51.96
2022-09-21T00:11:41.026Z,52.05
2022-09-21T00:14:14.459Z,52.12
2022-09-21T00:16:44.210Z,52.01
2022-09-21T00:19:12.874Z,51.92
2022-09-21T00:21:41.372Z,52.08
2022-09-21T00:24:09.983Z,52.26
2022-09-21T00:26:38.739Z,52.14
2022-09-21T00:29:07.552Z,52.25
2022-09-21T00:31:36.218Z,52.29
2022-09-21T00:34:08.061Z,52.20
2022-09-21T00:36:36.926Z,52.29
2022-09-21T00:39:05.887Z,52.42
2022-09-21T00:41:35.375Z,52.61
2022-09-21T00:44:16.446Z,52.64
2022-09-21T00:46:46.223Z,52.64
2022-09-21T00:49:16.196Z,52.74
2022-09-21T00:51:46.204Z,52.74
2022-09-21T00:54:26.439Z,52.85
2022-09-21T00:56:58.197Z,52.89
2022-09-21T00:59:30.105Z,52.59
2022-09-21T01:01:59.901Z,52.73
2022-09-21T01:04:29.972Z,52.82
2022-09-21T01:07:01.507Z,53.01
2022-09-21T01:09:30.664Z,53.00
2022-09-21T01:12:23.390Z,52.95
2022-09-21T01:15:13.511Z,52.96
2022-09-21T01:18:13.262Z,53.04
2022-09-21T01:20:56.328Z,53.22
2022-09-21T01:23:40.377Z,53.24
2022-09-21T01:26:27.644Z,53.27
2022-09-21T01:29:11.286Z,53.11
2022-09-21T01:32:15.985Z,53.35
2022-09-21T01:34:52.292Z,53.48
2022-09-21T01:37:29.785Z,53.46
2022-09-21T01:40:05.145Z,53.51
2022-09-21T01:42:35.607Z,53.59
2022-09-21T01:45:07.491Z,53.70
2022-09-21T01:47:38.015Z,53.72
2022-09-21T01:50:09.388Z,53.83
2022-09-21T01:52:57.835Z,53.89
2022-09-21T01:55:31.273Z,54.13
2022-09-21T01:58:12.156Z,53.93
2022-09-21T02:00:42.582Z,54.12
2022-09-21T02:03:27.936Z,54.31
2022-09-21T02:05:58.702Z,54.47
2022-09-21T02:08:30.015Z,54.68
2022-09-21T02:11:01.081Z,54.47
2022-09-21T02:13:34.358Z,54.35
2022-09-21T02:16:30.878Z,54.47
2022-09-21T02:19:13.455Z,54.55
2022-09-21T02:22:04.024Z,54.51
2022-09-21T02:24:52.331Z,54.61
2022-09-21T02:27:48.922Z,54.62
2022-09-21T02:30:19.538Z,54.74
2022-09-21T02:33:05.406Z,54.95
2022-09-21T02:35:52.352Z,54.89
2022-09-21T02:38:32.968Z,55.43
2022-09-21T02:41:24.731Z,55.81
2022-09-21T02:44:17.586Z,55.49
2022-09-21T02:47:02.147Z,55.49
2022-09-21T02:49:43.748Z,55.53
2022-09-21T02:52:17.316Z,55.49
2022-09-21T02:54:50.922Z,55.63
2022-09-21T02:57:22.178Z,55.57
2022-09-21T02:59:52.846Z,55.46
2022-09-21T03:02:21.495Z,55.45
2022-09-21T03:04:50.319Z,55.64
2022-09-21T03:07:19.008Z,55.74
2022-09-21T03:09:47.536Z,55.76
2022-09-21T03:12:16.088Z,56.00
2022-09-21T03:14:45.038Z,56.09
2022-09-21T03:17:13.478Z,56.08
2022-09-21T03:19:42.090Z,56.19
2022-09-21T03:22:10.669Z,56.55
2022-09-21T03:24:47.978Z,56.33
2022-09-21T03:27:20.061Z,56.62
2022-09-21T03:29:50.115Z,57.83
2022-09-21T03:32:18.985Z,57.17
2022-09-21T03:34:47.504Z,56.85
2022-09-21T03:37:16.317Z,56.71
2022-09-21T03:39:46.431Z,56.74
2022-09-21T03:42:15.114Z,56.94
2022-09-21T03:44:44.008Z,56.89
2022-09-21T03:47:12.733Z,56.87
2022-09-21T03:49:41.440Z,56.96
2022-09-21T03:52:10.025Z,57.05
2022-09-21T03:54:38.620Z,57.11
2022-09-21T03:57:07.147Z,57.06
2022-09-21T03:59:35.844Z,57.25
2022-09-21T04:02:04.492Z,57.31
2022-09-21T04:04:33.094Z,57.47
2022-09-21T04:07:01.688Z,58.58
2022-09-21T04:09:30.785Z,57.95
2022-09-21T04:11:59.254Z,58.19
2022-09-21T04:14:28.049Z,58.43
2022-09-21T04:16:56.941Z,57.89
2022-09-21T04:19:26.146Z,57.87
2022-09-21T04:21:56.453Z,57.95
2022-09-21T04:24:24.990Z,58.05
2022-09-21T04:26:53.526Z,57.98
2022-09-21T04:29:22.331Z,58.14
2022-09-21T04:31:50.876Z,58.73
2022-09-21T04:34:19.468Z,59.05
2022-09-21T04:36:48.489Z,58.30
2022-09-21T04:39:17.018Z,58.05
2022-09-21T04:41:45.852Z,58.22
2022-09-21T04:44:14.469Z,58.57
2022-09-21T04:46:42.935Z,58.22
2022-09-21T04:49:11.450Z,58.01
2022-09-21T04:51:39.985Z,57.85
2022-09-21T04:54:08.598Z,57.97
2022-09-21T04:56:37.596Z,57.65
2022-09-21T04:59:06.139Z,57.60
2022-09-21T05:01:35.049Z,57.82
2022-09-21T05:04:03.883Z,57.70
2022-09-21T05:06:34.081Z,57.49
2022-09-21T05:09:21.010Z,57.53
2022-09-21T05:11:50.182Z,57.32
2022-09-21T05:14:18.789Z,57.14
2022-09-21T05:16:50.073Z,57.06
2022-09-21T05:19:18.693Z,56.93
2022-09-21T05:21:47.381Z,56.82
2022-09-21T05:24:16.088Z,56.67
2022-09-21T05:26:44.587Z,56.63
2022-09-21T05:29:13.445Z,56.51
2022-09-21T05:32:01.670Z,56.23
2022-09-21T05:34:42.526Z,56.03
2022-09-21T05:37:38.295Z,55.63
2022-09-21T05:40:07.798Z,55.65
2022-09-21T05:42:36.883Z,55.57
2022-09-21T05:45:06.536Z,55.30
2022-09-21T05:48:03.438Z,55.02
2022-09-21T05:51:00.152Z,54.58
2022-09-21T05:53:31.551Z,54.19
2022-09-21T05:56:14.272Z,53.81
2022-09-21T05:59:04.627Z,54.01
2022-09-21T06:01:51.905Z,53.77
2022-09-21T06:04:20.787Z,53.88
2022-09-21T06:06:50.040Z,53.70
2022-09-21T06:09:18.792Z,53.46
2022-09-21T06:11:48.012Z,52.86
2022-09-21T06:14:16.587Z,53.00
2022-09-21T06:16:45.100Z,53.05
2022-09-21T06:19:14.192Z,53.16
2022-09-21T06:21:42.771Z,53.17
2022-09-21T06:24:12.142Z,52.84
2022-09-21T06:26:40.666Z,51.84
2022-09-21T06:29:09.187Z,52.23
2022-09-21T06:31:37.786Z,52.55
2022-09-21T06:34:06.293Z,52.57
2022-09-21T06:36:34.848Z,52.22
2022-09-21T06:39:03.610Z,52.29
2022-09-21T06:41:32.796Z,52.36
2022-09-21T06:44:01.505Z,51.93
2022-09-21T06:46:30.199Z,52.27
2022-09-21T06:48:58.850Z,52.18
2022-09-21T06:51:27.425Z,51.91
2022-09-21T06:53:57.249Z,50.81
2022-09-21T06:56:26.905Z,50.22
2022-09-21T06:58:56.102Z,49.89
2022-09-21T07:01:25.108Z,50.73
2022-09-21T07:03:54.574Z,51.12
2022-09-21T07:06:23.117Z,51.12
2022-09-21T07:11:43.549Z,49.81
2022-09-21T07:14:12.270Z,50.20
2022-09-21T07:16:41.368Z,50.42
2022-09-21T07:19:11.296Z,49.92
2022-09-21T07:21:40.507Z,48.96
2022-09-21T07:24:12.524Z,48.32
2022-09-21T07:26:41.582Z,48.10
2022-09-21T07:29:10.187Z,48.54
2022-09-21T07:31:38.849Z,47.68
2022-09-21T07:34:07.559Z,46.38
2022-09-21T07:36:36.230Z,45.38
2022-09-21T07:39:05.523Z,44.51
2022-09-21T07:41:34.300Z,44.61
2022-09-21T07:44:04.091Z,44.98
2022-09-21T07:46:33.172Z,44.44
2022-09-21T07:49:01.856Z,44.85
2022-09-21T07:51:30.450Z,45.90
2022-09-21T07:53:58.958Z,45.82
2022-09-21T07:56:27.564Z,46.14
2022-09-21T07:59:08.588Z,45.15
2022-09-21T08:01:42.164Z,44.06
2022-09-21T08:04:11.727Z,45.25
2022-09-21T08:06:40.589Z,44.29
2022-09-21T08:09:09.371Z,44.28
2022-09-21T08:11:39.738Z,44.65
2022-09-21T08:14:08.342Z,44.89
2022-09-21T08:16:39.057Z,43.17
2022-09-21T08:19:07.741Z,43.37
2022-09-21T08:21:36.461Z,42.82
2022-09-21T08:24:05.338Z,43.14
2022-09-21T08:26:33.945Z,41.46
2022-09-21T08:29:03.256Z,42.30
2022-09-21T08:31:32.001Z,43.74
2022-09-21T08:34:01.428Z,43.55
2022-09-21T08:36:29.993Z,42.82
2022-09-21T08:38:58.650Z,42.35
2022-09-21T08:41:46.562Z,42.42
2022-09-21T08:44:15.361Z,42.73
2022-09-21T08:46:47.012Z,42.72
2022-09-21T08:49:27.194Z,42.29
2022-09-21T08:52:06.299Z,41.98
2022-09-21T08:54:50.149Z,40.90
2022-09-21T08:57:20.399Z,41.40
2022-09-21T08:59:50.496Z,40.45
2022-09-21T09:02:52.884Z,40.80
2022-09-21T09:05:39.930Z,40.82
2022-09-21T09:08:33.813Z,38.51
2022-09-21T09:11:49.309Z,38.31
2022-09-21T09:14:34.388Z,39.99
2022-09-21T09:17:30.664Z,40.48
2022-09-21T09:20:05.852Z,40.31
2022-09-21T09:22:44.386Z,39.71
2022-09-21T09:25:22.180Z,39.67
2022-09-21T09:28:06.219Z,39.12
2022-09-21T09:30:36.161Z,38.04
2022-09-21T09:33:25.914Z,38.14
2022-09-21T09:36:06.832Z,37.00
2022-09-21T09:38:57.599Z,36.87
2022-09-21T09:42:03.261Z,37.01
2022-09-21T09:44:34.932Z,38.13
2022-09-21T09:47:03.775Z,37.40
2022-09-21T09:49:44.591Z,37.01
2022-09-21T09:52:15.638Z,36.22
2022-09-21T09:54:44.884Z,36.74
2022-09-21T09:57:13.972Z,35.94
2022-09-21T09:59:54.050Z,37.04
2022-09-21T10:02:26.767Z,37.87
2022-09-21T10:05:06.363Z,37.92
2022-09-21T10:07:41.342Z,36.37
2022-09-21T10:10:22.304Z,35.93
2022-09-21T10:12:53.029Z,34.93
2022-09-21T10:15:25.439Z,34.51
2022-09-21T10:18:20.329Z,35.14
2022-09-21T10:20:58.136Z,34.98
2022-09-21T10:23:28.038Z,34.65
2022-09-21T10:26:01.846Z,32.76
2022-09-21T10:28:31.790Z,32.30
2022-09-21T10:31:11.764Z,33.27
2022-09-21T10:34:06.225Z,32.35
2022-09-21T10:36:39.527Z,30.85
2022-09-21T10:39:29.638Z,31.85
2022-09-21T10:42:06.448Z,33.28
2022-09-21T10:44:47.098Z,34.11
2022-09-21T10:47:24.524Z,34.37
2022-09-21T10:49:55.687Z,33.78
2022-09-21T10:52:36.468Z,34.27
2022-09-21T10:55:07.347Z,34.00
2022-09-21T10:57:36.267Z,33.42
2022-09-21T11:00:29.707Z,33.65
2022-09-21T11:03:01.679Z,33.77
2022-09-21T11:05:35.483Z,34.19
2022-09-21T11:08:11.849Z,34.71
2022-09-21T11:10:50.546Z,34.23
2022-09-21T11:13:45.452Z,35.00
2022-09-21T11:16:13.938Z,34.40
2022-09-21T11:18:57.881Z,33.68
2022-09-21T11:21:50.808Z,33.85
2022-09-21T11:24:43.092Z,33.98
2022-09-21T11:27:24.768Z,33.49
2022-09-21T11:30:18.903Z,33.19
2022-09-21T11:32:50.446Z,32.69
2022-09-21T11:35:42.408Z,32.15
2022-09-21T11:38:34.604Z,32.92
2022-09-21T11:41:14.161Z,33.32
2022-09-21T11:44:16.499Z,33.58
2022-09-21T11:46:55.763Z,34.07
2022-09-21T11:49:36.536Z,34.28
2022-09-21T11:52:40.548Z,34.01
2022-09-21T11:55:17.063Z,33.83
2022-09-21T11:58:05.453Z,32.89
2022-09-21T12:01:00.690Z,31.92
2022-09-21T12:03:41.618Z,33.34
2022-09-21T12:06:36.706Z,33.41
2022-09-21T12:09:18.346Z,32.91
2022-09-21T12:12:10.774Z,33.94
2022-09-21T12:15:09.127Z,34.34
2022-09-21T12:18:17.742Z,34.48
2022-09-21T12:20:53.207Z,34.25
2022-09-21T12:23:43.664Z,34.22
2022-09-21T12:26:18.892Z,34.39
2022-09-21T12:28:52.545Z,33.72
2022-09-21T12:31:26.647Z,34.26
2022-09-21T12:34:19.157Z,34.49
2022-09-21T12:37:00.318Z,34.97
2022-09-21T12:39:36.864Z,34.82
2022-09-21T12:42:27.987Z,34.92
2022-09-21T12:45:03.792Z,34.99
2022-09-21T12:47:47.464Z,34.26
2022-09-21T12:50:22.663Z,34.24
2022-09-21T12:52:52.878Z,34.40
2022-09-21T12:55:22.234Z,34.65
2022-09-21T12:58:16.390Z,34.29
2022-09-21T13:01:00.999Z,34.51
2022-09-21T13:04:02.463Z,34.47
2022-09-21T13:06:49.803Z,33.29
2022-09-21T13:09:21.182Z,33.94
2022-09-21T13:12:34.981Z,34.41
2022-09-21T13:15:14.352Z,34.16
2022-09-21T13:17:43.442Z,34.27
2022-09-21T13:20:22.163Z,33.93
2022-09-21T13:23:01.238Z,33.69
2022-09-21T13:25:32.789Z,33.94
2022-09-21T13:28:04.583Z,34.01
2022-09-21T13:30:40.734Z,34.32
2022-09-21T13:33:18.493Z,34.31
2022-09-21T13:36:13.723Z,34.09
2022-09-21T13:38:44.987Z,33.41
2022-09-21T13:41:19.576Z,33.54
2022-09-21T13:43:59.751Z,34.24
2022-09-21T13:46:37.420Z,34.68
2022-09-21T13:49:22.951Z,33.60
2022-09-21T13:52:03.017Z,33.77
2022-09-21T13:54:34.608Z,34.28
2022-09-21T13:57:16.043Z,34.75
2022-09-21T13:59:47.464Z,35.02
2022-09-21T14:02:28.140Z,34.94
2022-09-21T14:04:58.049Z,35.11
2022-09-21T14:07:31.670Z,35.08
2022-09-21T14:10:04.481Z,34.95
2022-09-21T14:12:40.084Z,34.64
2022-09-21T14:15:18.383Z,34.07
2022-09-21T14:18:18.258Z,33.86
2022-09-21T14:21:08.656Z,34.27
2022-09-21T14:23:38.901Z,35.62
2022-09-21T14:26:36.493Z,36.06
2022-09-21T14:29:32.536Z,36.48
2022-09-21T14:32:04.827Z,36.39
2022-09-21T14:34:37.465Z,36.47
2022-09-21T14:37:27.973Z,36.89
2022-09-21T14:39:58.653Z,37.29
2022-09-21T14:42:29.589Z,37.26
2022-09-21T14:45:02.456Z,37.51
2022-09-21T14:47:55.893Z,37.99
2022-09-21T14:50:29.535Z,37.79
2022-09-21T14:53:08.421Z,37.89
2022-09-21T14:55:49.032Z,38.09
2022-09-21T14:58:28.924Z,38.08
2022-09-21T15:01:21.803Z,37.94
2022-09-21T15:04:19.422Z,38.17
2022-09-21T15:07:21.455Z,38.18
2022-09-21T15:10:34.894Z,38.19
2022-09-21T15:13:36.936Z,38.43
2022-09-21T15:16:24.076Z,38.49
2022-09-21T15:19:21.283Z,38.72
2022-09-21T15:22:12.433Z,38.68
2022-09-21T15:24:59.772Z,38.77
2022-09-21T15:27:34.009Z,38.83
2022-09-21T15:30:06.316Z,38.87
2022-09-21T15:32:42.159Z,38.37
2022-09-21T15:35:20.704Z,38.69
2022-09-21T15:37:51.329Z,39.26
2022-09-21T15:40:28.587Z,39.75
2022-09-21T15:43:02.160Z,40.06
2022-09-21T15:45:45.556Z,40.43
2022-09-21T15:48:14.652Z,40.82
2022-09-21T15:50:46.388Z,41.13
2022-09-21T15:53:30.505Z,41.62
2022-09-21T15:56:03.040Z,41.73
2022-09-21T15:58:37.660Z,41.94
2022-09-21T16:01:18.003Z,42.40
2022-09-21T16:03:46.967Z,42.88
2022-09-21T16:06:26.379Z,42.39
2022-09-21T16:08:55.696Z,42.78
2022-09-21T16:11:27.951Z,42.67
2022-09-21T16:14:30.637Z,42.99
2022-09-21T16:17:18.366Z,43.12
2022-09-21T16:19:51.241Z,43.32
2022-09-21T16:22:44.604Z,43.57
2022-09-21T16:25:30.776Z,43.73
2022-09-21T16:28:29.718Z,43.35
2022-09-21T16:30:59.399Z,43.38
2022-09-21T16:33:44.988Z,43.98
2022-09-21T16:36:22.600Z,44.22
2022-09-21T16:38:55.510Z,44.32
2022-09-21T16:41:32.653Z,44.19
2022-09-21T16:44:02.045Z,43.58
2022-09-21T16:46:32.309Z,44.29
2022-09-21T16:49:01.003Z,44.34
2022-09-21T16:51:29.781Z,44.08
2022-09-21T16:53:58.857Z,44.41
2022-09-21T16:56:27.467Z,44.68
2022-09-21T16:58:57.448Z,44.51
2022-09-21T17:01:27.054Z,44.47
2022-09-21T17:03:57.137Z,44.26
2022-09-21T17:06:25.776Z,43.97
2022-09-21T17:08:54.366Z,44.24
2022-09-21T17:11:24.601Z,44.73
2022-09-21T17:13:53.664Z,44.43
2022-09-21T17:16:22.887Z,44.40
2022-09-21T17:18:51.640Z,44.51
2022-09-21T17:21:20.535Z,44.47
2022-09-21T17:23:49.529Z,44.82
2022-09-21T17:26:19.560Z,45.08
2022-09-21T17:28:48.389Z,44.98
2022-09-21T17:31:17.211Z,44.93
2022-09-21T17:33:48.066Z,45.06
2022-09-21T17:36:18.394Z,44.63
2022-09-21T17:38:47.052Z,44.57
2022-09-21T17:41:25.708Z,44.73
2022-09-21T17:44:04.360Z,44.99
2022-09-21T17:46:51.656Z,45.06
2022-09-21T17:49:20.670Z,45.19
2022-09-21T17:52:08.105Z,45.18
2022-09-21T17:54:40.123Z,45.14
2022-09-21T17:57:22.502Z,45.37
2022-09-21T18:00:04.646Z,45.11
2022-09-21T18:02:34.299Z,44.95
2022-09-21T18:05:15.269Z,45.03
2022-09-21T18:07:44.150Z,45.33
2022-09-21T18:10:16.770Z,45.42
2022-09-21T18:13:03.873Z,45.46
2022-09-21T18:16:20.099Z,45.35
2022-09-21T18:19:13.196Z,45.31
2022-09-21T18:21:44.314Z,45.43
2022-09-21T18:24:22.026Z,45.42
2022-09-21T18:26:52.794Z,46.00
2022-09-21T18:29:46.572Z,45.77
2022-09-21T18:32:49.625Z,46.36
2022-09-21T18:35:47.566Z,46.33
2022-09-21T18:38:24.767Z,46.13
2022-09-21T18:41:13.120Z,46.30
2022-09-21T18:44:00.779Z,46.44
2022-09-21T18:46:41.918Z,46.41
2022-09-21T18:49:13.519Z,46.45
2022-09-21T18:52:07.751Z,46.27
2022-09-21T18:54:36.402Z,46.72
2022-09-21T18:57:12.498Z,46.37
2022-09-21T18:59:42.467Z,46.59
2022-09-21T19:02:15.090Z,46.67
2022-09-21T19:04:45.270Z,46.51
2022-09-21T19:07:18.681Z,46.66
2022-09-21T19:09:53.399Z,46.93
2022-09-21T19:12:49.204Z,46.76
2022-09-21T19:15:48.677Z,46.90
2022-09-21T19:18:57.625Z,47.11
2022-09-21T19:21:27.646Z,47.25
2022-09-21T19:24:08.698Z,47.17
2022-09-21T19:26:56.256Z,47.48
2022-09-21T19:30:02.386Z,48.25
2022-09-21T19:32:44.850Z,48.31
2022-09-21T19:35:31.285Z,48.38
2022-09-21T19:38:02.069Z,48.76
2022-09-21T19:40:39.026Z,48.22
2022-09-21T19:43:33.989Z,48.31
2022-09-21T19:46:33.879Z,48.92
2022-09-21T19:49:18.306Z,48.76
2022-09-21T19:51:52.565Z,48.66
2022-09-21T19:54:42.423Z,48.72
2022-09-21T19:57:35.393Z,48.67
2022-09-21T20:00:10.237Z,48.72
2022-09-21T20:03:03.797Z,48.56
2022-09-21T20:05:41.087Z,49.02
2022-09-21T20:08:21.954Z,48.82
2022-09-21T20:11:06.340Z,48.73
2022-09-21T20:13:50.150Z,48.64
2022-09-21T20:16:33.750Z,48.99
2022-09-21T20:19:18.416Z,48.59
2022-09-21T20:21:51.741Z,48.56
2022-09-21T20:24:52.993Z,48.70
2022-09-21T20:27:42.641Z,48.74
2022-09-21T20:30:14.398Z,48.70
2022-09-21T20:32:46.873Z,48.92
2022-09-21T20:35:30.921Z,48.99
2022-09-21T20:38:02.746Z,48.86
2022-09-21T20:40:32.597Z,48.84
2022-09-21T20:43:02.071Z,48.98
2022-09-21T20:45:33.568Z,49.08
2022-09-21T20:48:15.318Z,49.31
2022-09-21T20:50:46.726Z,49.24
2022-09-21T20:53:16.064Z,49.21
2022-09-21T20:55:54.092Z,49.38
2022-09-21T20:58:24.234Z,49.61
2022-09-21T21:00:58.570Z,49.91
2022-09-21T21:03:27.771Z,49.77
2022-09-21T21:06:10.420Z,49.57
2022-09-21T21:08:39.379Z,49.83
2022-09-21T21:11:08.475Z,50.17
2022-09-21T21:13:37.981Z,49.95
2022-09-21T21:16:11.778Z,50.07
2022-09-21T21:18:41.724Z,50.39
2022-09-21T21:21:11.420Z,50.59
2022-09-21T21:24:06.200Z,50.78
2022-09-21T21:26:57.799Z,51.04
2022-09-21T21:29:24.782Z,50.75
2022-09-21T21:31:53.627Z,51.34
2022-09-21T21:34:23.694Z,51.24
2022-09-21T21:36:53.713Z,52.12
2022-09-21T21:39:22.296Z,52.29
2022-09-21T21:41:50.981Z,51.86
2022-09-21T21:44:19.565Z,52.01
2022-09-21T21:46:48.454Z,52.16
2022-09-21T21:49:17.759Z,51.86
2022-09-21T21:51:49.487Z,51.87
2022-09-21T21:54:19.224Z,51.64
2022-09-21T21:56:48.116Z,51.77
2022-09-21T21:59:17.890Z,51.82
2022-09-21T22:01:47.538Z,51.83
2022-09-21T22:04:16.770Z,51.78
2022-09-21T22:06:45.286Z,51.99
2022-09-21T22:09:15.001Z,52.44
2022-09-21T22:11:43.760Z,52.56
2022-09-21T22:14:13.030Z,52.52
2022-09-21T22:16:41.684Z,52.53
2022-09-21T22:19:10.306Z,52.67
2022-09-21T22:21:48.184Z,52.67
2022-09-21T22:24:20.025Z,52.59
2022-09-21T22:26:49.087Z,52.93
2022-09-21T22:29:18.172Z,52.70
2022-09-21T22:31:50.346Z,52.97
2022-09-21T22:34:20.510Z,53.19
2022-09-21T22:36:50.642Z,53.48
2022-09-21T22:39:19.161Z,53.65
2022-09-21T22:41:47.710Z,53.34
2022-09-21T22:44:16.363Z,53.61
2022-09-21T22:46:44.896Z,53.80
2022-09-21T22:49:13.374Z,53.72
2022-09-21T22:51:41.925Z,53.61
2022-09-21T22:54:10.449Z,53.88
2022-09-21T22:56:39.208Z,54.00
2022-09-21T22:59:08.609Z,54.03
2022-09-21T23:01:39.339Z,54.34
2022-09-21T23:04:10.825Z,54.46
2022-09-21T23:06:42.500Z,54.87
2022-09-21T23:09:20.006Z,54.85
2022-09-21T23:11:53.872Z,54.71
2022-09-21T23:14:23.531Z,54.50
2022-09-21T23:16:52.269Z,54.76
2022-09-21T23:19:20.863Z,54.60
2022-09-21T23:21:50.698Z,54.61
2022-09-21T23:24:20.193Z,54.61
2022-09-21T23:26:51.891Z,54.61
2022-09-21T23:29:20.671Z,54.68
2022-09-21T23:31:49.320Z,54.92
2022-09-21T23:34:18.167Z,54.98
2022-09-21T23:36:46.815Z,54.95
2022-09-21T23:39:16.081Z,55.02
2022-09-21T23:41:45.529Z,55.01
2022-09-21T23:44:14.328Z,55.53
2022-09-21T23:46:43.416Z,55.57
2022-09-21T23:49:12.228Z,55.50
2022-09-21T23:51:41.612Z,55.37
2022-09-21T23:54:10.821Z,55.65
2022-09-21T23:56:39.443Z,55.66
2022-09-21T23:59:08.178Z,55.84
